Time;durP1;ratioP1;P1;durP2;ratioP2;P2;SDS_P1;SDS_P2;PMS_P1;PMS_P2;Temp;Humidity;BMP_temperature;BMP_pressure;BME280_temperature;BME280_humidity;BME280_pressure;Samples;Min_cycle;Max_cycle;Signal;HPM_P1;HPM_P2
2022/11/02 00:01:47;;;;;;;1.17;1.13;;;;;;;15.91;44.42;95768.25;5104697;28;21021;-63
2022/11/02 00:04:14;;;;;;;14.77;1.87;;;;;;;15.96;44.36;95762.19;5109690;28;20518;-62
2022/11/02 00:06:41;;;;;;;0.87;0.77;;;;;;;16.19;43.85;95762.41;5103030;28;20545;-62
2022/11/02 00:09:07;;;;;;;1.93;1.40;;;;;;;16.31;43.21;95764.75;5099058;28;21050;-64
2022/11/02 00:11:36;;;;;;;1.57;1.47;;;;;;;16.17;43.74;95763.72;5106198;28;20895;-62
2022/11/02 00:14:04;;;;;;;8.90;1.47;;;;;;;16.14;43.55;95758.97;5104727;28;20954;-63
2022/11/02 00:16:32;;;;;;;3.10;1.13;;;;;;;16.21;43.83;95764.75;5093863;28;20502;-63
2022/11/02 00:19:00;;;;;;;1.83;1.67;;;;;;;15.95;44.17;95765.88;5103478;28;20452;-63
2022/11/02 00:21:27;;;;;;;0.70;0.70;;;;;;;15.92;44.49;95761.13;5108101;28;20966;-63
2022/11/02 00:23:56;;;;;;;1.07;0.97;;;;;;;15.76;44.73;95773.59;5100926;28;20866;-64
2022/11/02 00:26:23;;;;;;;2.83;1.63;;;;;;;15.69;45.09;95774.91;5098484;28;21420;-63
2022/11/02 00:28:51;;;;;;;2.30;1.50;;;;;;;15.55;45.01;95772.00;5091332;28;20560;-65
2022/11/02 00:31:18;;;;;;;0.73;0.73;;;;;;;15.46;45.35;95768.31;5103142;28;20456;-62
2022/11/02 00:33:45;;;;;;;0.93;0.93;;;;;;;15.42;44.84;95763.84;5108433;28;20533;-61
2022/11/02 00:36:12;;;;;;;1.70;1.37;;;;;;;14.97;45.67;95770.59;5098657;28;20467;-61
2022/11/02 00:38:39;;;;;;;0.60;0.60;;;;;;;14.57;47.25;95769.69;5104321;28;20491;-61
2022/11/02 00:41:05;;;;;;;3.40;2.97;;;;;;;14.06;48.45;95772.09;5091066;28;20449;-62
2022/11/02 00:43:32;;;;;;;2.37;1.73;;;;;;;13.78;48.95;95771.63;5095259;28;20537;-64
2022/11/02 00:46:00;;;;;;;0.93;0.93;;;;;;;13.81;48.79;95765.88;5089225;28;20503;-64
2022/11/02 00:48:27;;;;;;;2.80;0.83;;;;;;;14.45;46.88;95756.72;5103430;28;21022;-61
2022/11/02 00:50:54;;;;;;;3.47;2.80;;;;;;;14.94;46.08;95755.28;5099440;28;20978;-62
2022/11/02 00:53:24;;;;;;;0.40;0.40;;;;;;;15.32;45.38;95763.78;5091769;28;20453;-64
2022/11/02 00:55:52;;;;;;;2.97;2.10;;;;;;;15.04;45.46;95752.66;5088709;28;20943;-63
2022/11/02 00:58:20;;;;;;;3.60;2.37;;;;;;;15.43;45.43;95755.63;5092837;28;20457;-64
2022/11/02 01:00:49;;;;;;;2.53;2.00;;;;;;;15.40;45.36;95761.41;5092310;28;20824;-64
2022/11/02 01:03:15;;;;;;;2.10;0.87;;;;;;;15.44;44.64;95753.78;5101196;27;20598;-61
2022/11/02 01:05:42;;;;;;;19.23;2.10;;;;;;;15.29;44.78;95754.53;5091769;28;20524;-62
2022/11/02 01:08:10;;;;;;;0.20;0.20;;;;;;;15.51;45.27;95751.69;5094805;28;20452;-63
2022/11/02 01:10:37;;;;;;;1.67;0.90;;;;;;;15.44;45.14;95759.09;5091087;28;20496;-63
2022/11/02 01:13:09;;;;;;;0.43;0.43;;;;;;;15.32;44.61;95761.13;5098275;28;20440;-63
2022/11/02 01:15:38;;;;;;;0.37;0.37;;;;;;;15.29;45.08;95759.03;5090121;28;20453;-62
2022/11/02 01:18:05;;;;;;;0.20;0.20;;;;;;;15.31;44.73;95754.28;5103673;28;20460;-65
2022/11/02 01:20:33;;;;;;;2.83;1.70;;;;;;;15.27;45.03;95763.78;5093059;28;20456;-65
2022/11/02 01:23:00;;;;;;;1.43;1.33;;;;;;;15.28;44.57;95760.88;5095872;28;20506;-62
2022/11/02 01:25:26;;;;;;;0.90;0.90;;;;;;;15.30;45.37;95755.31;5108113;28;20462;-64
2022/11/02 01:27:53;;;;;;;1.77;1.70;;;;;;;14.87;45.87;95754.75;5099713;28;20547;-62
2022/11/02 01:30:20;;;;;;;0.87;0.87;;;;;;;14.63;47.19;95758.91;5103051;28;21052;-64
2022/11/02 01:32:47;;;;;;;0.40;0.40;;;;;;;14.28;47.67;95753.50;5098820;28;20448;-63
2022/11/02 01:35:15;;;;;;;1.17;1.07;;;;;;;13.68;49.34;95755.78;5096462;27;20448;-62
2022/11/02 01:37:42;;;;;;;1.97;1.80;;;;;;;13.81;49.09;95755.34;5098737;28;20994;-65
2022/11/02 01:40:09;;;;;;;1.60;0.83;;;;;;;13.34;50.86;95760.50;5095620;28;20646;-64
2022/11/02 01:42:36;;;;;;;0.40;0.40;;;;;;;13.28;51.06;95755.47;5094576;28;20480;-63
2022/11/02 01:45:03;;;;;;;0.60;0.60;;;;;;;13.80;49.36;95744.00;5096660;28;20461;-64
2022/11/02 01:47:36;;;;;;;0.50;0.50;;;;;;;13.64;49.59;95754.69;5098535;28;20948;-63
2022/11/02 01:50:07;;;;;;;2.40;1.77;;;;;;;13.78;49.91;95745.28;5101548;28;20472;-63
2022/11/02 01:52:36;;;;;;;0.53;0.53;;;;;;;13.59;49.43;95747.56;5094937;28;20448;-64
2022/11/02 01:55:12;;;;;;;0.40;0.40;;;;;;;13.86;48.56;95748.25;5091938;28;20451;-63
2022/11/02 01:57:43;;;;;;;1.03;1.03;;;;;;;14.28;47.85;95748.22;5100457;28;20449;-62
2022/11/02 02:00:13;;;;;;;1.40;1.27;;;;;;;14.15;47.57;95746.03;5088004;28;20441;-63
2022/11/02 02:02:49;;;;;;;3.00;0.83;;;;;;;14.42;47.07;95744.06;5095974;28;20448;-63
2022/11/02 02:05:19;;;;;;;1.40;0.83;;;;;;;14.59;46.59;95746.50;5104770;28;20460;-63
2022/11/02 02:07:50;;;;;;;2.93;2.17;;;;;;;14.67;46.33;95738.84;5089055;28;20503;-65
2022/11/02 02:10:17;;;;;;;0.90;0.90;;;;;;;14.63;46.29;95745.72;5108916;28;20476;-61
2022/11/02 02:12:44;;;;;;;0.93;0.93;;;;;;;14.57;46.27;95738.84;5096614;28;20460;-65
2022/11/02 02:15:15;;;;;;;5.17;1.33;;;;;;;14.63;46.01;95737.00;5099842;28;20982;-61
2022/11/02 02:17:48;;;;;;;0.47;0.47;;;;;;;14.71;45.15;95729.38;5095933;28;20814;-62
2022/11/02 02:20:43;;;;;;;0.10;0.10;;;;;;;14.13;45.87;95742.84;5099016;28;20445;-63
2022/11/02 02:23:47;;;;;;;0.40;0.40;;;;;;;13.58;47.04;95740.69;5102127;28;20642;-63
2022/11/02 02:26:51;;;;;;;0.10;0.10;;;;;;;14.00;46.24;95732.75;5099141;28;20826;-63
2022/11/02 02:29:27;;;;;;;0.83;0.73;;;;;;;14.14;46.96;95739.19;5099286;28;20467;-64
2022/11/02 02:32:12;;;;;;;0.90;0.73;;;;;;;14.28;46.13;95740.31;5098920;28;20452;-61
2022/11/02 02:35:07;;;;;;;1.73;1.40;;;;;;;14.49;45.80;95735.94;5098171;28;20500;-61
2022/11/02 02:37:50;;;;;;;0.57;0.57;;;;;;;14.46;45.90;95731.16;5099798;28;20449;-63
2022/11/02 02:40:32;;;;;;;1.23;1.13;;;;;;;14.55;45.20;95740.94;5089552;28;20463;-63
2022/11/02 02:43:31;;;;;;;0.80;0.80;;;;;;;14.48;45.66;95735.13;5099247;28;20448;-63
2022/11/02 02:46:06;;;;;;;0.50;0.50;;;;;;;14.44;45.26;95734.06;5084361;28;20453;-61
2022/11/02 02:48:34;;;;;;;0.77;0.63;;;;;;;14.37;45.94;95732.69;5090810;28;20547;-65
2022/11/02 02:51:07;;;;;;;2.13;1.93;;;;;;;14.36;45.66;95736.41;5092049;28;20477;-63
2022/11/02 02:53:58;;;;;;;1.50;1.33;;;;;;;14.45;45.70;95730.34;5093741;28;20456;-60
2022/11/02 02:56:30;;;;;;;1.90;1.23;;;;;;;14.35;45.87;95730.31;5101896;28;20452;-61
2022/11/02 02:59:01;;;;;;;0.23;0.23;;;;;;;14.13;46.52;95732.31;5096967;28;20472;-64
2022/11/02 03:01:29;;;;;;;1.80;1.50;;;;;;;14.17;46.51;95728.13;5089279;28;20544;-61
2022/11/02 03:03:57;;;;;;;0.70;0.70;;;;;;;14.24;45.85;95729.47;5100039;28;20447;-62
2022/11/02 03:06:28;;;;;;;0.50;0.50;;;;;;;14.18;45.82;95729.69;5103341;28;20909;-65
2022/11/02 03:09:07;;;;;;;2.00;1.90;;;;;;;14.27;46.13;95725.53;5104617;27;20502;-61
2022/11/02 03:11:45;;;;;;;1.27;0.97;;;;;;;14.26;46.58;95742.38;5111151;28;20432;-60
2022/11/02 03:14:37;;;;;;;0.20;0.20;;;;;;;14.09;46.70;95744.41;5101727;28;20973;-61
2022/11/02 03:17:12;;;;;;;0.40;0.40;;;;;;;13.97;46.57;95741.19;5094988;28;20544;-63
2022/11/02 03:20:14;;;;;;;1.70;1.60;;;;;;;14.12;46.30;95741.28;5102162;28;20448;-62
2022/11/02 03:22:41;;;;;;;1.67;1.57;;;;;;;13.97;46.76;95742.00;5094387;28;20461;-61
2022/11/02 03:25:27;;;;;;;1.50;1.40;;;;;;;14.11;46.96;95739.69;5098438;28;20445;-66
2022/11/02 03:28:36;;;;;;;2.07;1.97;;;;;;;13.84;47.28;95739.81;5104671;28;22184;-63
2022/11/02 03:31:16;;;;;;;2.40;1.83;;;;;;;14.05;46.40;95736.22;5085329;28;20841;-64
2022/11/02 03:33:50;;;;;;;0.40;0.40;;;;;;;13.87;46.90;95744.56;5098065;28;20506;-63
2022/11/02 03:36:21;;;;;;;2.33;2.13;;;;;;;13.95;46.39;95741.44;5096457;28;20958;-60
2022/11/02 03:38:52;;;;;;;0.83;0.83;;;;;;;13.86;46.74;95744.81;5104682;28;20503;-62
2022/11/02 03:41:22;;;;;;;1.50;1.40;;;;;;;13.75;47.08;95737.91;5099631;28;20841;-62
2022/11/02 03:43:57;;;;;;;1.53;1.43;;;;;;;13.97;46.99;95749.09;5104613;28;21035;-62
2022/11/02 03:46:26;;;;;;;3.97;1.53;;;;;;;13.75;47.04;95751.06;5097991;28;20924;-63
2022/11/02 03:48:55;;;;;;;1.03;0.97;;;;;;;13.79;46.70;95744.25;5107479;28;20440;-64
2022/11/02 03:51:25;;;;;;;0.87;0.87;;;;;;;13.84;46.77;95744.28;5097786;28;20506;-60
2022/11/02 03:54:04;;;;;;;4.17;2.87;;;;;;;13.89;46.56;95741.66;5102387;28;20460;-63
2022/11/02 03:56:45;;;;;;;2.87;1.90;;;;;;;13.77;47.18;95744.50;5103283;28;20943;-60
2022/11/02 03:59:12;;;;;;;2.13;1.83;;;;;;;13.82;46.58;95731.38;5096828;28;20729;-61
2022/11/02 04:01:46;;;;;;;1.53;1.43;;;;;;;13.85;46.55;95730.06;5107412;28;20439;-63
2022/11/02 04:04:13;;;;;;;1.87;1.70;;;;;;;13.80;46.29;95730.03;5098529;28;20863;-63
2022/11/02 04:06:43;;;;;;;1.80;1.30;;;;;;;13.76;46.84;95731.56;5096812;28;20440;-62
2022/11/02 04:09:11;;;;;;;7.67;3.47;;;;;;;13.76;46.50;95732.38;5092669;28;20455;-61
2022/11/02 04:14:37;;;;;;;1.50;1.23;;;;;;;13.73;46.30;95726.81;5094135;28;20963;-63
2022/11/02 04:20:08;;;;;;;3.90;2.23;;;;;;;13.77;46.79;95733.97;5109763;27;20453;-64
2022/11/02 04:25:21;;;;;;;1.40;1.30;;;;;;;13.59;46.46;95736.22;5100255;28;20490;-63
2022/11/02 04:28:08;;;;;;;0.93;0.93;;;;;;;13.15;48.30;95741.69;5103145;28;20447;-64
2022/11/02 04:30:44;;;;;;;3.20;2.63;;;;;;;13.46;47.22;95742.72;5096543;28;20488;-63
2022/11/02 04:36:17;;;;;;;1.60;1.13;;;;;;;13.69;46.52;95736.28;5099381;28;20835;-64
2022/11/02 04:38:49;;;;;;;0.33;0.33;;;;;;;13.66;47.22;95736.78;5093472;28;20540;-62
2022/11/02 04:41:42;;;;;;;12.63;1.27;;;;;;;13.57;47.21;95738.31;5101033;28;20444;-63
2022/11/02 04:44:16;;;;;;;1.80;1.60;;;;;;;13.55;47.14;95743.03;5104921;28;21006;-64
2022/11/02 04:46:50;;;;;;;1.27;1.03;;;;;;;13.41;47.67;95744.53;5095361;28;20511;-64
2022/11/02 04:49:18;;;;;;;1.87;1.77;;;;;;;13.48;47.67;95745.09;5102633;28;20445;-64
2022/11/02 04:51:46;;;;;;;2.30;1.50;;;;;;;13.43;47.94;95745.84;5094203;28;20476;-63
2022/11/02 04:54:18;;;;;;;0.60;0.60;;;;;;;12.18;51.81;95745.34;5094203;28;20448;-63
2022/11/02 04:56:49;;;;;;;12.20;3.83;;;;;;;11.80;53.06;95751.44;5100832;28;20429;-65
2022/11/02 04:59:17;;;;;;;2.67;1.07;;;;;;;12.01;52.94;95749.84;5098773;28;20475;-64
2022/11/02 05:01:44;;;;;;;0.87;0.77;;;;;;;12.77;50.66;95739.16;5095112;28;20441;-63
2022/11/02 05:04:13;;;;;;;1.67;1.57;;;;;;;13.17;49.16;95744.84;5105090;28;20444;-65
2022/11/02 05:06:41;;;;;;;0.63;0.63;;;;;;;13.19;48.75;95748.00;5094822;28;21045;-62
2022/11/02 05:09:09;;;;;;;0.53;0.53;;;;;;;13.41;48.40;95745.28;5110652;28;20436;-61
2022/11/02 05:11:40;;;;;;;0.90;0.90;;;;;;;13.48;47.52;95750.34;5095528;28;20484;-61
2022/11/02 05:14:07;;;;;;;0.87;0.87;;;;;;;13.40;47.33;95753.44;5094310;28;20447;-61
2022/11/02 05:16:34;;;;;;;2.90;2.63;;;;;;;13.47;47.08;95751.38;5095005;28;20449;-62
2022/11/02 05:19:01;;;;;;;6.67;1.77;;;;;;;13.38;48.70;95755.53;5105689;28;20474;-63
2022/11/02 05:21:32;;;;;;;0.83;0.83;;;;;;;13.32;48.51;95756.56;5104292;28;20501;-63
2022/11/02 05:23:59;;;;;;;1.63;1.53;;;;;;;13.38;48.51;95750.25;5094157;28;20453;-62
2022/11/02 05:26:26;;;;;;;0.90;0.90;;;;;;;13.23;49.11;95754.38;5109997;28;20452;-62
2022/11/02 05:28:53;;;;;;;0.73;0.73;;;;;;;13.41;48.78;95755.06;5110044;28;20474;-64
2022/11/02 05:31:20;;;;;;;2.30;2.00;;;;;;;13.29;50.22;95767.56;5097080;28;20479;-62
2022/11/02 05:33:48;;;;;;;0.67;0.67;;;;;;;13.40;49.68;95774.50;5095387;28;20828;-63
2022/11/02 05:36:19;;;;;;;1.53;1.43;;;;;;;13.74;47.80;95762.66;5088302;28;20443;-62
2022/11/02 05:38:53;;;;;;;1.67;1.17;;;;;;;13.85;47.73;95778.25;5094193;28;20456;-65
2022/11/02 05:41:22;;;;;;;1.43;1.30;;;;;;;13.92;47.52;95772.78;5081025;28;20449;-64
2022/11/02 05:43:51;;;;;;;2.17;2.07;;;;;;;14.19;47.90;95781.38;5086397;28;20448;-64
2022/11/02 05:46:20;;;;;;;5.20;2.57;;;;;;;13.77;48.07;95784.03;5087015;28;20924;-63
2022/11/02 05:48:46;;;;;;;2.53;1.60;;;;;;;14.11;47.44;95784.47;5103961;28;20441;-63
2022/11/02 05:51:13;;;;;;;1.37;0.90;;;;;;;13.91;47.56;95787.00;5089889;28;20473;-63
2022/11/02 05:53:40;;;;;;;4.57;2.53;;;;;;;14.08;47.85;95803.44;5088063;28;20528;-64
2022/11/02 05:56:10;;;;;;;5.03;1.57;;;;;;;14.19;47.26;95800.63;5089267;28;21015;-60
2022/11/02 05:58:37;;;;;;;4.87;2.33;;;;;;;14.10;46.75;95801.34;5102694;28;20818;-62
2022/11/02 06:01:06;;;;;;;18.97;3.50;;;;;;;13.86;47.87;95810.69;5108029;28;20939;-63
2022/11/02 06:03:33;;;;;;;1.57;1.47;;;;;;;14.11;47.38;95802.94;5109734;28;20524;-62
2022/11/02 06:06:04;;;;;;;3.07;2.20;;;;;;;13.30;51.93;95806.81;5091282;28;20433;-64
2022/11/02 06:08:33;;;;;;;2.97;2.77;;;;;;;13.56;50.91;95816.50;5089357;28;20437;-64
2022/11/02 06:11:11;;;;;;;6.93;4.07;;;;;;;13.75;50.84;95812.47;5092252;28;20547;-62
2022/11/02 06:13:39;;;;;;;5.90;4.70;;;;;;;13.33;51.94;95816.03;5099175;28;20550;-61
2022/11/02 06:16:08;;;;;;;0.93;0.93;;;;;;;13.18;52.59;95814.88;5106325;28;20472;-65
2022/11/02 06:18:35;;;;;;;0.93;0.93;;;;;;;13.51;52.14;95818.31;5091904;28;20441;-65
2022/11/02 06:21:02;;;;;;;0.53;0.53;;;;;;;13.55;51.56;95819.41;5089031;28;20468;-64
2022/11/02 06:23:29;;;;;;;1.07;1.07;;;;;;;13.48;52.38;95816.19;5102008;28;20471;-64
2022/11/02 06:25:58;;;;;;;5.43;4.67;;;;;;;13.84;51.00;95812.78;5087679;28;20437;-62
2022/11/02 06:28:26;;;;;;;4.53;4.13;;;;;;;14.30;50.28;95812.03;5088870;28;20537;-64
2022/11/02 06:30:56;;;;;;;2.17;1.87;;;;;;;14.63;48.85;95805.59;5087295;28;20495;-61
2022/11/02 06:33:23;;;;;;;2.27;2.07;;;;;;;14.76;47.26;95818.31;5102066;28;20507;-62
2022/11/02 06:35:51;;;;;;;2.23;2.07;;;;;;;13.77;49.83;95818.28;5107799;28;20475;-62
2022/11/02 06:38:18;;;;;;;8.73;3.87;;;;;;;13.92;50.04;95812.31;5097823;28;20441;-59
2022/11/02 06:40:53;;;;;;;1.37;1.30;;;;;;;14.61;47.74;95819.06;5103408;28;20437;-61
2022/11/02 06:43:21;;;;;;;5.37;3.67;;;;;;;14.54;47.33;95817.69;5099750;28;20447;-62
2022/11/02 06:45:49;;;;;;;2.60;2.40;;;;;;;15.09;46.69;95821.31;5091394;28;20490;-61
2022/11/02 06:48:15;;;;;;;2.50;1.97;;;;;;;14.60;47.70;95812.16;5098172;28;20566;-63
2022/11/02 06:50:42;;;;;;;17.17;3.23;;;;;;;14.36;48.74;95818.13;5101784;28;20857;-61
2022/11/02 06:53:10;;;;;;;1.53;1.43;;;;;;;14.72;47.88;95815.41;5099335;28;20470;-61
2022/11/02 06:55:37;;;;;;;2.03;1.90;;;;;;;15.35;46.21;95810.78;5108903;28;20954;-61
2022/11/02 06:58:04;;;;;;;3.30;3.07;;;;;;;15.31;45.90;95812.38;5100184;28;20445;-60
2022/11/02 07:00:31;;;;;;;1.40;1.30;;;;;;;15.05;45.98;95812.31;5102571;28;20898;-61
2022/11/02 07:02:59;;;;;;;0.77;0.77;;;;;;;14.96;46.78;95805.97;5088709;28;20500;-61
2022/11/02 07:05:27;;;;;;;4.63;2.23;;;;;;;14.14;48.63;95807.72;5088501;28;20532;-61
2022/11/02 07:07:54;;;;;;;2.00;1.90;;;;;;;14.42;48.22;95809.97;5092837;28;20848;-62
2022/11/02 07:10:22;;;;;;;1.50;1.40;;;;;;;15.13;47.37;95811.81;5109004;28;20961;-60
2022/11/02 07:12:57;;;;;;;5.80;3.33;;;;;;;14.83;47.55;95810.94;5090478;28;20978;-60
2022/11/02 07:15:25;;;;;;;1.80;1.67;;;;;;;15.52;46.48;95808.72;5087989;28;20957;-61
2022/11/02 07:17:52;;;;;;;1.57;1.47;;;;;;;15.68;46.17;95802.38;5103047;28;20444;-60
2022/11/02 07:20:19;;;;;;;5.40;3.20;;;;;;;15.68;45.91;95802.38;5098673;28;20471;-60
2022/11/02 07:22:58;;;;;;;4.77;3.00;;;;;;;16.18;45.46;95802.34;5106632;28;21025;-61
2022/11/02 07:25:27;;;;;;;7.70;4.17;;;;;;;15.37;46.59;95808.66;5098364;28;20448;-60
2022/11/02 07:27:54;;;;;;;1.93;1.80;;;;;;;16.04;44.76;95796.78;5109002;28;20472;-63
2022/11/02 07:30:21;;;;;;;3.33;2.53;;;;;;;16.09;44.92;95803.94;5100372;28;20471;-61
2022/11/02 07:32:48;;;;;;;3.03;2.73;;;;;;;15.84;45.06;95801.31;5102087;28;20505;-61
2022/11/02 07:35:16;;;;;;;0.83;0.83;;;;;;;15.93;44.91;95794.44;5088282;28;20437;-61
2022/11/02 07:37:43;;;;;;;0.93;0.93;;;;;;;16.23;44.82;95787.25;5101574;28;20444;-61
2022/11/02 07:40:12;;;;;;;1.53;1.40;;;;;;;16.72;43.60;95787.34;5102970;28;20822;-61
2022/11/02 07:42:44;;;;;;;1.63;1.53;;;;;;;16.80;43.42;95783.34;5100276;28;20440;-62
2022/11/02 07:45:11;;;;;;;0.67;0.67;;;;;;;16.60;44.21;95789.53;5103920;28;20429;-62
2022/11/02 07:47:44;;;;;;;2.03;1.40;;;;;;;16.37;45.67;95790.09;5098723;28;20456;-60
2022/11/02 07:50:13;;;;;;;1.67;1.57;;;;;;;17.43;42.98;95777.13;5108371;28;20433;-61
2022/11/02 07:52:48;;;;;;;1.43;1.37;;;;;;;17.51;42.33;95783.72;5092211;28;20551;-61
2022/11/02 07:55:17;;;;;;;0.87;0.87;;;;;;;17.19;42.67;95770.94;5105454;28;20451;-60
2022/11/02 07:58:02;;;;;;;6.40;2.40;;;;;;;17.51;42.52;95773.13;5111776;28;20528;-60
2022/11/02 08:00:32;;;;;;;6.60;3.83;;;;;;;17.15;42.60;95776.00;5097131;28;20498;-61
2022/11/02 08:03:01;;;;;;;6.00;2.67;;;;;;;17.73;41.42;95765.53;5091889;28;20437;-61
2022/11/02 08:05:30;;;;;;;1.93;1.83;;;;;;;17.61;41.90;95763.22;5092087;28;20449;-61
2022/11/02 08:08:02;;;;;;;2.27;1.47;;;;;;;17.88;41.86;95762.75;5106676;28;20449;-62
2022/11/02 08:10:31;;;;;;;4.17;3.17;;;;;;;18.23;41.32;95760.50;5105216;28;20504;-63
2022/11/02 08:13:08;;;;;;;4.60;3.20;;;;;;;19.37;39.79;95757.75;5092225;28;20532;-63
2022/11/02 08:15:35;;;;;;;4.47;2.07;;;;;;;18.46;40.93;95752.88;5104911;28;20531;-61
2022/11/02 08:18:05;;;;;;;1.47;1.37;;;;;;;19.21;39.18;95749.22;5112048;28;20441;-61
2022/11/02 08:20:35;;;;;;;5.97;3.60;;;;;;;19.33;39.15;95738.94;5112155;28;20451;-62
2022/11/02 08:23:03;;;;;;;2.30;2.10;;;;;;;19.51;38.46;95742.66;5112015;28;20469;-61
2022/11/02 08:25:31;;;;;;;2.00;1.83;;;;;;;19.00;39.01;95740.72;5111792;28;20436;-61
2022/11/02 08:27:59;;;;;;;2.80;2.33;;;;;;;19.51;39.13;95738.13;5097201;27;20915;-61
2022/11/02 08:30:28;;;;;;;4.00;1.53;;;;;;;20.52;37.63;95726.47;5111351;28;20472;-60
2022/11/02 08:33:02;;;;;;;1.03;1.03;;;;;;;19.69;38.52;95728.53;5111656;28;20444;-62
2022/11/02 08:35:29;;;;;;;1.30;1.20;;;;;;;20.38;36.99;95731.00;5102840;28;20452;-63
2022/11/02 08:37:58;;;;;;;1.37;1.27;;;;;;;20.71;37.04;95724.44;5106463;28;20531;-62
2022/11/02 08:40:26;;;;;;;1.27;1.10;;;;;;;20.09;36.86;95725.13;5104296;28;20434;-63
2022/11/02 08:42:56;;;;;;;1.60;1.50;;;;;;;20.61;37.21;95730.00;5104803;28;20468;-62
2022/11/02 08:45:24;;;;;;;7.17;1.67;;;;;;;20.61;36.14;95722.03;5090748;28;20447;-61
2022/11/02 08:47:51;;;;;;;3.37;2.73;;;;;;;20.58;36.62;95719.16;5090603;28;20493;-61
2022/11/02 08:50:19;;;;;;;1.47;1.37;;;;;;;21.16;35.75;95709.38;5104649;28;20838;-61
2022/11/02 08:52:46;;;;;;;2.43;2.23;;;;;;;21.32;35.06;95712.47;5090559;28;20473;-61
2022/11/02 08:55:13;;;;;;;1.10;1.00;;;;;;;20.90;36.06;95709.13;5090636;28;20448;-61
2022/11/02 08:57:46;;;;;;;5.73;2.67;;;;;;;20.78;36.18;95714.19;5109712;28;20942;-62
2022/11/02 09:00:14;;;;;;;0.90;0.90;;;;;;;21.10;35.46;95700.72;5110083;28;20965;-62
2022/11/02 09:02:41;;;;;;;8.37;1.87;;;;;;;21.81;34.01;95701.66;5091936;28;20469;-62
2022/11/02 09:05:08;;;;;;;2.27;1.47;;;;;;;21.62;35.40;95698.41;5101837;28;20533;-63
2022/11/02 09:07:36;;;;;;;1.10;1.10;;;;;;;21.79;34.69;95699.31;5107875;28;20222;-62
2022/11/02 09:10:03;;;;;;;17.57;4.80;;;;;;;22.53;33.70;95697.56;5100286;28;20508;-61
2022/11/02 09:12:30;;;;;;;2.27;1.73;;;;;;;22.46;33.44;95686.56;5096051;28;20696;-62
2022/11/02 09:14:57;;;;;;;4.17;1.67;;;;;;;22.54;33.20;95688.44;5110717;28;20248;-62
2022/11/02 09:17:23;;;;;;;3.57;1.93;;;;;;;22.16;34.22;95695.41;5110515;27;20575;-62
2022/11/02 09:19:50;;;;;;;1.47;1.37;;;;;;;22.70;33.71;95686.94;5110783;28;20198;-62
2022/11/02 09:22:17;;;;;;;4.07;1.53;;;;;;;22.34;33.51;95680.22;5110742;27;20289;-62
2022/11/02 09:24:44;;;;;;;4.23;2.17;;;;;;;22.08;34.51;95680.13;5110697;28;20305;-61
2022/11/02 09:27:11;;;;;;;4.93;3.07;;;;;;;22.16;34.35;95682.06;5110528;28;20201;-62
2022/11/02 09:29:38;;;;;;;1.53;1.43;;;;;;;23.21;33.05;95678.13;5110837;28;20198;-62
2022/11/02 09:32:04;;;;;;;2.50;2.30;;;;;;;23.61;32.64;95670.75;5101789;28;20235;-61
2022/11/02 09:34:32;;;;;;;1.70;1.60;;;;;;;23.89;31.74;95667.34;5104792;28;20199;-62
2022/11/02 09:36:59;;;;;;;1.50;0.80;;;;;;;23.29;32.40;95671.22;5110254;28;20243;-62
2022/11/02 09:39:26;;;;;;;0.90;0.90;;;;;;;23.60;32.98;95658.44;5096989;28;20187;-61
2022/11/02 09:42:11;;;;;;;1.63;1.53;;;;;;;22.86;33.18;95660.56;5109578;28;20243;-62
2022/11/02 09:45:00;;;;;;;4.73;3.10;;;;;;;22.78;32.95;95646.09;5110695;28;20208;-62
2022/11/02 09:47:31;;;;;;;1.07;1.07;;;;;;;22.85;33.35;95638.38;5109859;28;20260;-62
2022/11/02 09:50:40;;;;;;;4.03;0.93;;;;;;;23.28;31.95;95648.28;5105369;28;20190;-61
2022/11/02 09:53:13;;;;;;;1.93;1.83;;;;;;;23.28;32.93;95641.03;5099638;28;20271;-61
2022/11/02 09:55:51;;;;;;;2.23;2.00;;;;;;;24.23;31.45;95628.19;5109602;28;20280;-62
2022/11/02 09:58:24;;;;;;;2.40;2.10;;;;;;;24.05;31.23;95624.78;5099121;28;20282;-61
2022/11/02 10:00:56;;;;;;;7.00;1.90;;;;;;;23.67;32.21;95631.97;5103839;28;20221;-62
2022/11/02 10:03:39;;;;;;;1.67;1.57;;;;;;;23.84;32.42;95626.59;5100857;28;20210;-62
2022/11/02 10:06:22;;;;;;;4.70;1.73;;;;;;;23.80;31.95;95620.28;5095142;28;20194;-62
2022/11/02 10:09:04;;;;;;;9.10;4.23;;;;;;;24.28;30.71;95609.22;5096670;28;20215;-62
2022/11/02 10:11:56;;;;;;;1.80;1.70;;;;;;;23.89;31.88;95619.16;5096238;28;20618;-61
2022/11/02 10:14:35;;;;;;;2.40;2.10;;;;;;;24.07;31.22;95609.19;5095284;28;20206;-62
2022/11/02 10:17:21;;;;;;;1.50;1.40;;;;;;;24.69;30.83;95607.38;5109167;28;20198;-61
2022/11/02 10:19:54;;;;;;;3.13;2.37;;;;;;;24.80;30.17;95592.50;5095152;28;20201;-61
2022/11/02 10:22:27;;;;;;;2.03;1.93;;;;;;;24.93;30.82;95596.81;5096546;28;20199;-62
2022/11/02 10:24:56;;;;;;;2.13;2.03;;;;;;;24.91;31.02;95590.97;5108617;28;20557;-62
2022/11/02 10:27:29;;;;;;;2.43;2.20;;;;;;;25.37;29.98;95591.81;5097529;28;20281;-62
2022/11/02 10:30:10;;;;;;;7.23;2.90;;;;;;;25.49;29.76;95578.47;5093697;28;20190;-61
2022/11/02 10:32:39;;;;;;;1.00;1.00;;;;;;;24.93;30.50;95583.41;5109466;28;20293;-61
2022/11/02 10:35:35;;;;;;;2.20;2.00;;;;;;;25.34;30.48;95571.81;5089045;28;20183;-63
2022/11/02 10:38:31;;;;;;;1.80;1.60;;;;;;;25.89;29.51;95571.34;5088801;28;20296;-62
2022/11/02 10:41:05;;;;;;;1.90;1.80;;;;;;;25.90;29.34;95570.22;5089120;28;20191;-62
2022/11/02 10:43:50;;;;;;;6.10;4.77;;;;;;;25.69;29.62;95564.19;5108371;28;20194;-62
2022/11/02 10:46:26;;;;;;;1.57;1.47;;;;;;;25.92;29.54;95559.94;5095314;28;20227;-62
2022/11/02 10:49:05;;;;;;;3.13;2.10;;;;;;;26.15;29.70;95550.31;5096130;28;20229;-61
2022/11/02 10:51:32;;;;;;;2.27;2.07;;;;;;;26.30;28.78;95544.25;5095320;28;20648;-62
2022/11/02 10:53:59;;;;;;;1.63;1.53;;;;;;;26.13;28.59;95547.19;5091675;28;20360;-62
2022/11/02 10:56:32;;;;;;;2.07;1.63;;;;;;;26.34;28.55;95545.16;5099885;28;20658;-62
2022/11/02 10:59:01;;;;;;;3.67;2.37;;;;;;;25.96;29.68;95544.72;5102794;28;20300;-61
2022/11/02 11:01:30;;;;;;;3.40;2.03;;;;;;;26.21;28.57;95535.53;5097551;28;20190;-62
2022/11/02 11:04:01;;;;;;;2.57;2.37;;;;;;;26.32;28.71;95539.31;5107972;28;20202;-61
2022/11/02 11:06:38;;;;;;;4.87;2.27;;;;;;;26.50;29.33;95529.88;5109174;28;20210;-61
2022/11/02 11:09:20;;;;;;;2.33;2.13;;;;;;;26.53;28.14;95521.13;5094994;28;20247;-61
2022/11/02 11:11:58;;;;;;;7.07;2.97;;;;;;;26.89;28.54;95518.34;5098996;28;20570;-62
2022/11/02 11:14:28;;;;;;;0.80;0.80;;;;;;;27.01;26.13;95514.78;5088460;28;20217;-62
2022/11/02 11:17:17;;;;;;;1.73;1.50;;;;;;;27.25;27.03;95511.19;5100864;28;20206;-62
2022/11/02 11:20:23;;;;;;;6.83;1.23;;;;;;;27.55;26.89;95498.91;5100607;28;20187;-62
2022/11/02 11:23:09;;;;;;;1.57;1.40;;;;;;;27.83;25.41;95499.56;5105436;28;20263;-62
2022/11/02 11:25:36;;;;;;;0.77;0.77;;;;;;;27.81;25.71;95488.34;5112589;28;20198;-62
2022/11/02 11:28:21;;;;;;;1.07;0.97;;;;;;;27.61;24.82;95489.44;5098359;28;20589;-63
2022/11/02 11:31:01;;;;;;;0.70;0.70;;;;;;;27.99;24.89;95479.59;5112927;28;20271;-61
2022/11/02 11:33:29;;;;;;;6.40;2.90;;;;;;;28.35;24.61;95480.34;5106497;28;20284;-62
2022/11/02 11:35:56;;;;;;;2.77;1.90;;;;;;;28.57;23.33;95471.59;5104688;28;20267;-62
2022/11/02 11:38:26;;;;;;;0.80;0.73;;;;;;;28.93;23.27;95474.63;5112461;28;20200;-61
2022/11/02 11:40:57;;;;;;;2.80;2.10;;;;;;;29.12;22.64;95475.75;5101224;28;20195;-61
2022/11/02 11:43:37;;;;;;;0.60;0.50;;;;;;;29.43;22.14;95464.72;5110477;28;20717;-62
2022/11/02 11:46:07;;;;;;;0.87;0.87;;;;;;;29.92;21.64;95460.09;5107701;28;20190;-63
2022/11/02 11:48:39;;;;;;;5.90;1.57;;;;;;;30.49;21.51;95450.84;5096703;28;20243;-63
2022/11/02 11:51:35;;;;;;;0.83;0.83;;;;;;;30.82;21.92;95451.63;5102302;28;20234;-63
2022/11/02 11:54:17;;;;;;;2.07;1.63;;;;;;;31.38;20.33;95442.53;5106107;28;20188;-62
2022/11/02 11:56:45;;;;;;;0.93;0.80;;;;;;;31.44;19.57;95441.03;5103757;28;20198;-63
2022/11/02 11:59:25;;;;;;;0.97;0.93;;;;;;;31.08;18.52;95445.31;5111757;28;20205;-62
2022/11/02 12:01:56;;;;;;;4.13;1.87;;;;;;;30.64;18.50;95441.72;5100591;28;20282;-63
2022/11/02 12:04:28;;;;;;;2.57;0.87;;;;;;;30.62;18.32;95433.97;5111144;28;20213;-62
2022/11/02 12:07:31;;;;;;;0.40;0.40;;;;;;;31.73;17.94;95421.13;5112214;28;20714;-64
2022/11/02 12:10:16;;;;;;;1.13;0.83;;;;;;;31.71;17.66;95434.28;5103567;28;20195;-63